sensor_id;sensor_type;location;lat;lon;timestamp;temperature;humidity
21267;DHT22;10791;53.108;18.326;2023-11-18T00:02:02;1.10;99.90
21267;DHT22;10791;53.108;18.326;2023-11-18T00:07:06;1.00;99.90
21267;DHT22;10791;53.108;18.326;2023-11-18T00:12:08;1.00;99.90
21267;DHT22;10791;53.108;18.326;2023-11-18T00:17:12;0.90;99.90
21267;DHT22;10791;53.108;18.326;2023-11-18T00:22:15;1.00;99.90
21267;DHT22;10791;53.108;18.326;2023-11-18T00:27:19;1.00;99.90
21267;DHT22;10791;53.108;18.326;2023-11-18T00:32:23;1.00;99.90
21267;DHT22;10791;53.108;18.326;2023-11-18T00:37:26;1.10;99.90
21267;DHT22;10791;53.108;18.326;2023-11-18T00:42:29;1.20;99.90
21267;DHT22;10791;53.108;18.326;2023-11-18T00:47:32;1.20;99.90
21267;DHT22;10791;53.108;18.326;2023-11-18T00:52:36;1.10;99.90
21267;DHT22;10791;53.108;18.326;2023-11-18T00:57:45;1.10;99.90
21267;DHT22;10791;53.108;18.326;2023-11-18T01:02:49;1.10;99.90
21267;DHT22;10791;53.108;18.326;2023-11-18T01:07:53;1.10;99.90
21267;DHT22;10791;53.108;18.326;2023-11-18T01:12:56;1.20;99.90
21267;DHT22;10791;53.108;18.326;2023-11-18T01:18:01;1.20;99.90
21267;DHT22;10791;53.108;18.326;2023-11-18T01:23:05;1.10;99.90
21267;DHT22;10791;53.108;18.326;2023-11-18T01:28:09;1.10;99.90
21267;DHT22;10791;53.108;18.326;2023-11-18T01:33:12;1.10;99.90
21267;DHT22;10791;53.108;18.326;2023-11-18T01:38:18;1.10;99.90
21267;DHT22;10791;53.108;18.326;2023-11-18T01:43:23;1.10;99.90
21267;DHT22;10791;53.108;18.326;2023-11-18T01:48:28;1.10;99.90
21267;DHT22;10791;53.108;18.326;2023-11-18T01:53:33;1.20;99.90
21267;DHT22;10791;53.108;18.326;2023-11-18T01:58:38;1.20;99.90
21267;DHT22;10791;53.108;18.326;2023-11-18T02:03:44;1.20;99.90
21267;DHT22;10791;53.108;18.326;2023-11-18T02:08:47;1.20;99.90
21267;DHT22;10791;53.108;18.326;2023-11-18T02:13:52;1.20;99.90
21267;DHT22;10791;53.108;18.326;2023-11-18T02:18:57;1.20;99.90
21267;DHT22;10791;53.108;18.326;2023-11-18T02:24:01;1.20;99.90
21267;DHT22;10791;53.108;18.326;2023-11-18T02:29:04;1.20;99.90
21267;DHT22;10791;53.108;18.326;2023-11-18T02:34:14;1.20;99.90
21267;DHT22;10791;53.108;18.326;2023-11-18T02:39:26;1.20;99.90
21267;DHT22;10791;53.108;18.326;2023-11-18T02:44:33;1.10;99.90
21267;DHT22;10791;53.108;18.326;2023-11-18T02:49:37;1.20;99.90
21267;DHT22;10791;53.108;18.326;2023-11-18T02:54:41;1.10;99.90
21267;DHT22;10791;53.108;18.326;2023-11-18T02:59:47;1.10;99.90
21267;DHT22;10791;53.108;18.326;2023-11-18T03:04:50;1.10;99.90
21267;DHT22;10791;53.108;18.326;2023-11-18T03:09:54;1.10;99.90
21267;DHT22;10791;53.108;18.326;2023-11-18T03:15:00;1.10;99.90
21267;DHT22;10791;53.108;18.326;2023-11-18T03:20:05;1.10;99.90
21267;DHT22;10791;53.108;18.326;2023-11-18T03:25:15;1.20;99.90
21267;DHT22;10791;53.108;18.326;2023-11-18T03:30:19;1.20;99.90
21267;DHT22;10791;53.108;18.326;2023-11-18T03:35:22;1.20;99.90
21267;DHT22;10791;53.108;18.326;2023-11-18T03:40:27;1.20;99.90
21267;DHT22;10791;53.108;18.326;2023-11-18T03:45:32;1.30;99.90
21267;DHT22;10791;53.108;18.326;2023-11-18T03:50:35;1.30;99.90
21267;DHT22;10791;53.108;18.326;2023-11-18T03:55:38;1.30;99.90
21267;DHT22;10791;53.108;18.326;2023-11-18T04:00:42;1.50;99.90
21267;DHT22;10791;53.108;18.326;2023-11-18T04:05:44;1.60;99.90
21267;DHT22;10791;53.108;18.326;2023-11-18T04:10:48;1.60;99.90
21267;DHT22;10791;53.108;18.326;2023-11-18T04:15:51;1.60;99.90
21267;DHT22;10791;53.108;18.326;2023-11-18T04:20:55;1.70;99.90
21267;DHT22;10791;53.108;18.326;2023-11-18T04:25:58;1.70;99.90
21267;DHT22;10791;53.108;18.326;2023-11-18T04:31:02;1.70;99.90
21267;DHT22;10791;53.108;18.326;2023-11-18T04:36:07;1.70;99.90
21267;DHT22;10791;53.108;18.326;2023-11-18T04:41:13;1.80;99.90
21267;DHT22;10791;53.108;18.326;2023-11-18T04:46:16;1.80;99.90
21267;DHT22;10791;53.108;18.326;2023-11-18T04:51:20;1.80;99.90
21267;DHT22;10791;53.108;18.326;2023-11-18T04:56:25;1.80;99.90
21267;DHT22;10791;53.108;18.326;2023-11-18T05:01:29;1.80;99.90
21267;DHT22;10791;53.108;18.326;2023-11-18T05:06:32;1.80;99.90
21267;DHT22;10791;53.108;18.326;2023-11-18T05:11:35;1.80;99.90
21267;DHT22;10791;53.108;18.326;2023-11-18T05:16:38;1.80;99.90
21267;DHT22;10791;53.108;18.326;2023-11-18T05:21:42;1.80;99.90
21267;DHT22;10791;53.108;18.326;2023-11-18T05:26:46;1.90;99.90
21267;DHT22;10791;53.108;18.326;2023-11-18T05:31:51;1.90;99.90
21267;DHT22;10791;53.108;18.326;2023-11-18T05:36:54;1.90;99.90
21267;DHT22;10791;53.108;18.326;2023-11-18T05:41:57;2.00;99.90
21267;DHT22;10791;53.108;18.326;2023-11-18T05:47:01;1.90;99.90
21267;DHT22;10791;53.108;18.326;2023-11-18T05:52:05;1.90;99.90
21267;DHT22;10791;53.108;18.326;2023-11-18T05:57:09;2.00;99.90
21267;DHT22;10791;53.108;18.326;2023-11-18T06:02:12;2.00;99.90
21267;DHT22;10791;53.108;18.326;2023-11-18T06:07:20;2.00;99.90
21267;DHT22;10791;53.108;18.326;2023-11-18T06:12:23;1.90;99.90
21267;DHT22;10791;53.108;18.326;2023-11-18T06:17:27;1.90;99.90
21267;DHT22;10791;53.108;18.326;2023-11-18T06:22:31;1.80;99.90
21267;DHT22;10791;53.108;18.326;2023-11-18T06:27:34;1.80;99.90
21267;DHT22;10791;53.108;18.326;2023-11-18T06:32:38;1.70;99.90
21267;DHT22;10791;53.108;18.326;2023-11-18T06:37:42;1.70;99.90
21267;DHT22;10791;53.108;18.326;2023-11-18T06:42:46;1.70;99.90
21267;DHT22;10791;53.108;18.326;2023-11-18T06:47:50;1.80;99.90
21267;DHT22;10791;53.108;18.326;2023-11-18T06:52:53;1.80;99.90
21267;DHT22;10791;53.108;18.326;2023-11-18T06:57:57;1.70;99.90
21267;DHT22;10791;53.108;18.326;2023-11-18T07:03:00;1.60;99.90
21267;DHT22;10791;53.108;18.326;2023-11-18T07:08:04;1.60;99.90
21267;DHT22;10791;53.108;18.326;2023-11-18T07:13:08;1.60;99.90
21267;DHT22;10791;53.108;18.326;2023-11-18T07:18:11;1.60;99.90
21267;DHT22;10791;53.108;18.326;2023-11-18T07:23:15;1.70;99.90
21267;DHT22;10791;53.108;18.326;2023-11-18T07:28:20;1.80;99.90
21267;DHT22;10791;53.108;18.326;2023-11-18T07:33:24;1.80;99.90
21267;DHT22;10791;53.108;18.326;2023-11-18T07:38:27;1.90;99.90
21267;DHT22;10791;53.108;18.326;2023-11-18T07:43:31;1.90;99.90
21267;DHT22;10791;53.108;18.326;2023-11-18T07:48:34;1.90;99.90
21267;DHT22;10791;53.108;18.326;2023-11-18T07:53:38;1.90;99.90
21267;DHT22;10791;53.108;18.326;2023-11-18T07:58:45;1.90;99.90
21267;DHT22;10791;53.108;18.326;2023-11-18T08:03:49;1.80;99.90
21267;DHT22;10791;53.108;18.326;2023-11-18T08:08:56;1.80;99.90
21267;DHT22;10791;53.108;18.326;2023-11-18T08:14:00;1.80;99.90
21267;DHT22;10791;53.108;18.326;2023-11-18T08:19:06;1.90;99.90
21267;DHT22;10791;53.108;18.326;2023-11-18T08:24:12;1.90;99.90
21267;DHT22;10791;53.108;18.326;2023-11-18T08:29:16;1.80;99.90
21267;DHT22;10791;53.108;18.326;2023-11-18T08:34:20;1.80;99.90
21267;DHT22;10791;53.108;18.326;2023-11-18T08:39:23;1.90;99.90
21267;DHT22;10791;53.108;18.326;2023-11-18T08:44:29;2.00;99.90
21267;DHT22;10791;53.108;18.326;2023-11-18T08:49:35;2.00;99.90
21267;DHT22;10791;53.108;18.326;2023-11-18T08:54:40;2.00;99.90
21267;DHT22;10791;53.108;18.326;2023-11-18T09:00:04;2.00;99.90
21267;DHT22;10791;53.108;18.326;2023-11-18T09:05:20;1.90;99.90
21267;DHT22;10791;53.108;18.326;2023-11-18T09:10:25;2.00;99.90
21267;DHT22;10791;53.108;18.326;2023-11-18T09:15:29;2.10;99.90
21267;DHT22;10791;53.108;18.326;2023-11-18T09:20:33;2.30;99.90
21267;DHT22;10791;53.108;18.326;2023-11-18T09:25:39;2.30;99.90
21267;DHT22;10791;53.108;18.326;2023-11-18T09:30:44;2.50;99.90
21267;DHT22;10791;53.108;18.326;2023-11-18T09:35:56;2.50;99.90
21267;DHT22;10791;53.108;18.326;2023-11-18T09:41:04;2.50;99.90
21267;DHT22;10791;53.108;18.326;2023-11-18T09:46:14;2.20;99.90
21267;DHT22;10791;53.108;18.326;2023-11-18T09:51:22;2.10;99.90
21267;DHT22;10791;53.108;18.326;2023-11-18T10:01:39;2.10;99.90
21267;DHT22;10791;53.108;18.326;2023-11-18T10:06:46;2.30;99.90
21267;DHT22;10791;53.108;18.326;2023-11-18T10:11:56;2.30;99.90
21267;DHT22;10791;53.108;18.326;2023-11-18T10:17:08;2.30;99.90
21267;DHT22;10791;53.108;18.326;2023-11-18T10:22:22;2.20;99.90
21267;DHT22;10791;53.108;18.326;2023-11-18T10:27:27;2.30;99.90
21267;DHT22;10791;53.108;18.326;2023-11-18T10:32:31;2.40;99.90
21267;DHT22;10791;53.108;18.326;2023-11-18T10:37:39;2.70;99.90
21267;DHT22;10791;53.108;18.326;2023-11-18T10:42:46;2.80;99.90
21267;DHT22;10791;53.108;18.326;2023-11-18T10:47:52;3.00;99.90
21267;DHT22;10791;53.108;18.326;2023-11-18T10:53:02;2.90;99.90
21267;DHT22;10791;53.108;18.326;2023-11-18T10:58:08;3.20;99.90
21267;DHT22;10791;53.108;18.326;2023-11-18T11:03:11;3.00;99.90
21267;DHT22;10791;53.108;18.326;2023-11-18T11:08:18;3.10;99.90
21267;DHT22;10791;53.108;18.326;2023-11-18T11:13:38;3.10;99.90
21267;DHT22;10791;53.108;18.326;2023-11-18T11:18:47;3.30;99.90
21267;DHT22;10791;53.108;18.326;2023-11-18T11:23:58;3.60;99.90
21267;DHT22;10791;53.108;18.326;2023-11-18T11:29:40;3.70;99.90
21267;DHT22;10791;53.108;18.326;2023-11-18T11:34:53;3.70;99.90
21267;DHT22;10791;53.108;18.326;2023-11-18T11:39:59;3.60;99.90
21267;DHT22;10791;53.108;18.326;2023-11-18T11:45:07;3.50;99.90
21267;DHT22;10791;53.108;18.326;2023-11-18T11:50:32;3.50;99.90
21267;DHT22;10791;53.108;18.326;2023-11-18T11:56:03;3.60;99.90
21267;DHT22;10791;53.108;18.326;2023-11-18T12:01:37;3.90;99.90
21267;DHT22;10791;53.108;18.326;2023-11-18T12:06:44;4.10;99.90
21267;DHT22;10791;53.108;18.326;2023-11-18T12:11:50;3.90;99.90
21267;DHT22;10791;53.108;18.326;2023-11-18T12:22:04;4.10;99.90
21267;DHT22;10791;53.108;18.326;2023-11-18T12:33:00;4.20;99.90
21267;DHT22;10791;53.108;18.326;2023-11-18T12:44:57;4.20;99.90
21267;DHT22;10791;53.108;18.326;2023-11-18T12:49:26;4.00;99.90
21267;DHT22;10791;53.108;18.326;2023-11-18T12:54:31;4.00;99.90
21267;DHT22;10791;53.108;18.326;2023-11-18T12:59:34;3.90;99.90
21267;DHT22;10791;53.108;18.326;2023-11-18T13:04:41;4.00;99.90
21267;DHT22;10791;53.108;18.326;2023-11-18T13:09:45;4.00;99.90
21267;DHT22;10791;53.108;18.326;2023-11-18T13:14:49;3.80;99.90
21267;DHT22;10791;53.108;18.326;2023-11-18T13:19:53;3.80;99.90
21267;DHT22;10791;53.108;18.326;2023-11-18T13:24:57;3.90;99.90
21267;DHT22;10791;53.108;18.326;2023-11-18T13:30:02;3.90;99.90
21267;DHT22;10791;53.108;18.326;2023-11-18T13:35:09;3.90;99.90
21267;DHT22;10791;53.108;18.326;2023-11-18T13:40:14;3.90;99.90
21267;DHT22;10791;53.108;18.326;2023-11-18T13:45:21;4.00;99.90
21267;DHT22;10791;53.108;18.326;2023-11-18T13:50:41;4.00;99.90
21267;DHT22;10791;53.108;18.326;2023-11-18T13:55:46;3.90;99.90
21267;DHT22;10791;53.108;18.326;2023-11-18T14:00:52;3.90;99.90
21267;DHT22;10791;53.108;18.326;2023-11-18T14:05:58;3.80;99.90
21267;DHT22;10791;53.108;18.326;2023-11-18T14:11:04;3.70;99.90
21267;DHT22;10791;53.108;18.326;2023-11-18T14:16:18;3.60;99.90
21267;DHT22;10791;53.108;18.326;2023-11-18T14:21:24;3.60;99.90
21267;DHT22;10791;53.108;18.326;2023-11-18T14:26:28;3.60;99.90
21267;DHT22;10791;53.108;18.326;2023-11-18T14:31:33;3.60;99.90
21267;DHT22;10791;53.108;18.326;2023-11-18T14:36:41;3.60;99.90
21267;DHT22;10791;53.108;18.326;2023-11-18T14:41:46;3.60;99.90
21267;DHT22;10791;53.108;18.326;2023-11-18T14:46:49;3.60;99.90
21267;DHT22;10791;53.108;18.326;2023-11-18T14:51:53;3.60;99.90
21267;DHT22;10791;53.108;18.326;2023-11-18T14:56:56;3.50;99.90
21267;DHT22;10791;53.108;18.326;2023-11-18T15:02:00;3.50;99.90
21267;DHT22;10791;53.108;18.326;2023-11-18T15:07:04;3.40;99.90
21267;DHT22;10791;53.108;18.326;2023-11-18T15:12:07;3.30;99.90
21267;DHT22;10791;53.108;18.326;2023-11-18T15:17:12;3.30;99.90
21267;DHT22;10791;53.108;18.326;2023-11-18T15:22:30;3.20;99.90
21267;DHT22;10791;53.108;18.326;2023-11-18T15:27:37;3.10;99.90
21267;DHT22;10791;53.108;18.326;2023-11-18T15:32:45;3.10;99.90
21267;DHT22;10791;53.108;18.326;2023-11-18T15:37:49;3.20;99.90
21267;DHT22;10791;53.108;18.326;2023-11-18T15:42:53;3.10;99.90
21267;DHT22;10791;53.108;18.326;2023-11-18T15:47:59;3.00;99.90
21267;DHT22;10791;53.108;18.326;2023-11-18T15:53:04;2.90;99.90
21267;DHT22;10791;53.108;18.326;2023-11-18T15:58:11;3.00;99.90
21267;DHT22;10791;53.108;18.326;2023-11-18T16:03:15;3.00;99.90
21267;DHT22;10791;53.108;18.326;2023-11-18T16:08:19;3.00;99.90
21267;DHT22;10791;53.108;18.326;2023-11-18T16:13:22;2.90;99.90
21267;DHT22;10791;53.108;18.326;2023-11-18T16:18:26;2.90;99.90
21267;DHT22;10791;53.108;18.326;2023-11-18T16:23:30;3.00;99.90
21267;DHT22;10791;53.108;18.326;2023-11-18T16:28:38;2.90;99.90
21267;DHT22;10791;53.108;18.326;2023-11-18T16:33:42;2.90;99.90
21267;DHT22;10791;53.108;18.326;2023-11-18T16:38:47;2.90;99.90
21267;DHT22;10791;53.108;18.326;2023-11-18T16:43:51;2.80;99.90
21267;DHT22;10791;53.108;18.326;2023-11-18T16:48:54;2.80;99.90
21267;DHT22;10791;53.108;18.326;2023-11-18T16:53:57;2.80;99.90
21267;DHT22;10791;53.108;18.326;2023-11-18T16:59:02;2.80;99.90
21267;DHT22;10791;53.108;18.326;2023-11-18T17:04:06;2.80;99.90
21267;DHT22;10791;53.108;18.326;2023-11-18T17:09:11;2.70;99.90
21267;DHT22;10791;53.108;18.326;2023-11-18T17:14:15;2.60;99.90
21267;DHT22;10791;53.108;18.326;2023-11-18T17:19:18;2.70;99.90
21267;DHT22;10791;53.108;18.326;2023-11-18T17:24:22;2.70;99.90
21267;DHT22;10791;53.108;18.326;2023-11-18T17:29:29;2.80;99.90
21267;DHT22;10791;53.108;18.326;2023-11-18T17:35:01;2.70;99.90
21267;DHT22;10791;53.108;18.326;2023-11-18T17:40:08;2.80;99.90
21267;DHT22;10791;53.108;18.326;2023-11-18T17:45:14;2.80;99.90
21267;DHT22;10791;53.108;18.326;2023-11-18T17:50:19;2.80;99.90
21267;DHT22;10791;53.108;18.326;2023-11-18T17:55:23;2.80;99.90
21267;DHT22;10791;53.108;18.326;2023-11-18T18:00:27;2.70;99.90
21267;DHT22;10791;53.108;18.326;2023-11-18T18:05:30;2.70;99.90
21267;DHT22;10791;53.108;18.326;2023-11-18T18:10:34;2.60;99.90
21267;DHT22;10791;53.108;18.326;2023-11-18T18:15:38;2.60;99.90
21267;DHT22;10791;53.108;18.326;2023-11-18T18:20:41;2.50;99.90
21267;DHT22;10791;53.108;18.326;2023-11-18T18:25:51;2.40;99.90
21267;DHT22;10791;53.108;18.326;2023-11-18T18:30:56;2.30;99.90
21267;DHT22;10791;53.108;18.326;2023-11-18T18:36:00;2.20;99.90
21267;DHT22;10791;53.108;18.326;2023-11-18T18:41:04;2.20;99.90
21267;DHT22;10791;53.108;18.326;2023-11-18T18:46:09;2.10;99.90
21267;DHT22;10791;53.108;18.326;2023-11-18T18:51:14;2.20;99.90
21267;DHT22;10791;53.108;18.326;2023-11-18T18:56:18;2.30;99.90
21267;DHT22;10791;53.108;18.326;2023-11-18T19:01:22;2.30;99.90
21267;DHT22;10791;53.108;18.326;2023-11-18T19:06:26;2.40;99.90
21267;DHT22;10791;53.108;18.326;2023-11-18T19:11:31;2.30;99.90
21267;DHT22;10791;53.108;18.326;2023-11-18T19:16:35;2.40;99.90
21267;DHT22;10791;53.108;18.326;2023-11-18T19:21:38;2.40;99.90
21267;DHT22;10791;53.108;18.326;2023-11-18T19:26:42;2.40;99.90
21267;DHT22;10791;53.108;18.326;2023-11-18T19:31:46;2.40;99.90
21267;DHT22;10791;53.108;18.326;2023-11-18T19:36:49;2.40;99.90
21267;DHT22;10791;53.108;18.326;2023-11-18T19:41:53;2.50;99.90
21267;DHT22;10791;53.108;18.326;2023-11-18T19:46:57;2.50;99.90
21267;DHT22;10791;53.108;18.326;2023-11-18T19:52:00;2.50;99.90
21267;DHT22;10791;53.108;18.326;2023-11-18T19:57:05;2.50;99.90
21267;DHT22;10791;53.108;18.326;2023-11-18T20:02:12;2.50;99.90
21267;DHT22;10791;53.108;18.326;2023-11-18T20:07:16;2.50;99.90
21267;DHT22;10791;53.108;18.326;2023-11-18T20:12:21;2.50;99.90
21267;DHT22;10791;53.108;18.326;2023-11-18T20:17:26;2.50;99.90
21267;DHT22;10791;53.108;18.326;2023-11-18T20:22:30;2.40;99.90
21267;DHT22;10791;53.108;18.326;2023-11-18T20:27:34;2.30;99.90
21267;DHT22;10791;53.108;18.326;2023-11-18T20:32:39;2.30;99.90
21267;DHT22;10791;53.108;18.326;2023-11-18T20:37:44;2.30;99.90
21267;DHT22;10791;53.108;18.326;2023-11-18T20:42:52;2.30;99.90
21267;DHT22;10791;53.108;18.326;2023-11-18T20:47:56;2.30;99.90
21267;DHT22;10791;53.108;18.326;2023-11-18T20:53:00;2.30;99.90
21267;DHT22;10791;53.108;18.326;2023-11-18T20:58:04;2.30;99.90
21267;DHT22;10791;53.108;18.326;2023-11-18T21:03:08;2.20;99.90
21267;DHT22;10791;53.108;18.326;2023-11-18T21:08:16;2.20;99.90
21267;DHT22;10791;53.108;18.326;2023-11-18T21:13:20;2.20;99.90
21267;DHT22;10791;53.108;18.326;2023-11-18T21:18:24;2.10;99.90
21267;DHT22;10791;53.108;18.326;2023-11-18T21:23:28;2.10;99.90
21267;DHT22;10791;53.108;18.326;2023-11-18T21:28:35;2.00;99.90
21267;DHT22;10791;53.108;18.326;2023-11-18T21:33:41;2.10;99.90
21267;DHT22;10791;53.108;18.326;2023-11-18T21:38:46;2.20;99.90
21267;DHT22;10791;53.108;18.326;2023-11-18T21:43:56;2.10;99.90
21267;DHT22;10791;53.108;18.326;2023-11-18T21:49:02;2.10;99.90
21267;DHT22;10791;53.108;18.326;2023-11-18T21:54:08;2.00;99.90
21267;DHT22;10791;53.108;18.326;2023-11-18T21:59:13;2.00;99.90
21267;DHT22;10791;53.108;18.326;2023-11-18T22:04:16;1.90;99.90
21267;DHT22;10791;53.108;18.326;2023-11-18T22:09:20;1.90;99.90
21267;DHT22;10791;53.108;18.326;2023-11-18T22:14:27;1.90;99.90
21267;DHT22;10791;53.108;18.326;2023-11-18T22:19:30;1.90;99.90
21267;DHT22;10791;53.108;18.326;2023-11-18T22:24:35;1.90;99.90
21267;DHT22;10791;53.108;18.326;2023-11-18T22:29:42;1.90;99.90
21267;DHT22;10791;53.108;18.326;2023-11-18T22:34:46;1.80;99.90
21267;DHT22;10791;53.108;18.326;2023-11-18T22:39:49;1.90;99.90
21267;DHT22;10791;53.108;18.326;2023-11-18T22:44:52;1.90;99.90
21267;DHT22;10791;53.108;18.326;2023-11-18T22:49:56;1.90;99.90
21267;DHT22;10791;53.108;18.326;2023-11-18T22:55:00;1.80;99.90
21267;DHT22;10791;53.108;18.326;2023-11-18T23:00:17;1.80;99.90
21267;DHT22;10791;53.108;18.326;2023-11-18T23:05:36;1.80;99.90
21267;DHT22;10791;53.108;18.326;2023-11-18T23:10:44;1.80;99.90
21267;DHT22;10791;53.108;18.326;2023-11-18T23:15:49;1.70;99.90
21267;DHT22;10791;53.108;18.326;2023-11-18T23:20:58;1.60;99.90
21267;DHT22;10791;53.108;18.326;2023-11-18T23:26:02;1.60;99.90
21267;DHT22;10791;53.108;18.326;2023-11-18T23:31:08;1.60;99.90
21267;DHT22;10791;53.108;18.326;2023-11-18T23:36:17;1.50;99.90
21267;DHT22;10791;53.108;18.326;2023-11-18T23:41:21;1.40;99.90
21267;DHT22;10791;53.108;18.326;2023-11-18T23:46:24;1.20;99.90
21267;DHT22;10791;53.108;18.326;2023-11-18T23:51:30;1.10;99.90
21267;DHT22;10791;53.108;18.326;2023-11-18T23:56:33;1.00;99.90
